Time;durP1;ratioP1;P1;durP2;ratioP2;P2;SDS_P1;SDS_P2;PMS_P1;PMS_P2;Temp;Humidity;BMP_temperature;BMP_pressure;BME280_temperature;BME280_humidity;BME280_pressure;Samples;Min_cycle;Max_cycle;Signal;HPM_P1;HPM_P2
2022/02/15 00:00:39;;;;;;;19.90;6.47;;;;;;;;;;5079044;28;20217;-77
2022/02/15 00:03:08;;;;;;;14.83;6.03;;;;;;;;;;5082724;28;20215;-78
2022/02/15 00:05:35;;;;;;;14.27;5.17;;;;;;;;;;5076838;28;20229;-77
2022/02/15 00:08:02;;;;;;;13.60;4.80;;;;;;;;;;5073702;28;20202;-78
2022/02/15 00:10:31;;;;;;;14.40;4.63;;;;;;;;;;5076374;28;20248;-77
2022/02/15 00:13:00;;;;;;;14.60;4.87;;;;;;;;;;5079583;28;20200;-78
2022/02/15 00:15:27;;;;;;;12.30;5.00;;;;;;;;;;5075188;28;20292;-78
2022/02/15 00:17:54;;;;;;;14.30;5.07;;;;;;;;;;5071474;28;20198;-78
2022/02/15 00:20:21;;;;;;;14.93;5.07;;;;;;;;;;5076881;28;20226;-78
2022/02/15 00:22:48;;;;;;;13.43;5.20;;;;;;;;;;5078017;28;20221;-77
2022/02/15 00:25:16;;;;;;;14.40;4.90;;;;;;;;;;5073234;28;20241;-78
2022/02/15 00:27:45;;;;;;;14.23;4.33;;;;;;;;;;5074118;28;20229;-78
2022/02/15 00:30:13;;;;;;;14.20;4.83;;;;;;;;;;5075485;28;20203;-78
2022/02/15 00:32:41;;;;;;;13.83;4.43;;;;;;;;;;5072108;28;20567;-78
2022/02/15 00:35:08;;;;;;;12.33;4.40;;;;;;;;;;5073278;28;20292;-78
2022/02/15 00:37:35;;;;;;;14.37;4.77;;;;;;;;;;5075961;28;20210;-78
2022/02/15 00:40:02;;;;;;;14.47;6.03;;;;;;;;;;5075415;28;20640;-77
2022/02/15 00:42:30;;;;;;;21.77;6.43;;;;;;;;;;5074452;28;20480;-78
2022/02/15 00:44:58;;;;;;;15.80;6.37;;;;;;;;;;5078417;28;20566;-78
2022/02/15 00:47:25;;;;;;;13.87;4.80;;;;;;;;;;5074784;28;20289;-78
2022/02/15 00:49:52;;;;;;;19.67;6.00;;;;;;;;;;5075126;28;20673;-77
2022/02/15 00:52:21;;;;;;;18.67;6.43;;;;;;;;;;5082868;28;20238;-78
2022/02/15 00:54:48;;;;;;;15.97;5.37;;;;;;;;;;5079844;28;20237;-78
2022/02/15 00:57:16;;;;;;;12.10;5.27;;;;;;;;;;5076951;28;20210;-78
2022/02/15 00:59:43;;;;;;;10.87;5.00;;;;;;;;;;5076692;28;20205;-77
2022/02/15 01:02:11;;;;;;;14.33;5.53;;;;;;;;;;5077302;28;20421;-78
2022/02/15 01:04:38;;;;;;;12.50;4.70;;;;;;;;;;5078059;28;20201;-78
2022/02/15 01:07:06;;;;;;;17.23;5.70;;;;;;;;;;5078236;28;20198;-77
2022/02/15 01:09:33;;;;;;;18.40;5.53;;;;;;;;;;5082573;28;20289;-76
2022/02/15 01:12:01;;;;;;;21.83;5.27;;;;;;;;;;5081957;28;20217;-78
2022/02/15 01:14:28;;;;;;;18.03;5.97;;;;;;;;;;5076795;28;20205;-78
2022/02/15 01:16:55;;;;;;;15.37;5.43;;;;;;;;;;5080498;28;20202;-77
2022/02/15 01:19:24;;;;;;;13.27;5.47;;;;;;;;;;5075370;28;20216;-77
2022/02/15 01:21:51;;;;;;;18.23;5.83;;;;;;;;;;5077397;28;20264;-78
2022/02/15 01:24:18;;;;;;;17.80;5.40;;;;;;;;;;5077979;28;20225;-78
2022/02/15 01:26:45;;;;;;;15.90;5.60;;;;;;;;;;5078528;28;20502;-78
2022/02/15 01:29:12;;;;;;;17.37;5.30;;;;;;;;;;5076619;28;20202;-78
2022/02/15 01:31:40;;;;;;;16.67;5.43;;;;;;;;;;5070496;28;20226;-78
2022/02/15 01:34:07;;;;;;;18.57;6.20;;;;;;;;;;5074469;28;20224;-78
2022/02/15 01:36:35;;;;;;;16.13;5.13;;;;;;;;;;5074154;28;20208;-77
2022/02/15 01:39:02;;;;;;;14.83;5.67;;;;;;;;;;5075665;28;20220;-77
2022/02/15 01:41:30;;;;;;;19.90;5.30;;;;;;;;;;5080210;28;20628;-78
2022/02/15 01:43:57;;;;;;;16.50;4.57;;;;;;;;;;5082138;28;20316;-77
2022/02/15 01:46:24;;;;;;;15.30;4.57;;;;;;;;;;5079997;28;20202;-78
2022/02/15 01:48:51;;;;;;;17.33;4.93;;;;;;;;;;5079229;28;20212;-77
2022/02/15 01:51:19;;;;;;;14.27;5.07;;;;;;;;;;5078084;28;20256;-78
2022/02/15 01:53:47;;;;;;;18.13;5.03;;;;;;;;;;5077366;28;20287;-78
2022/02/15 01:56:16;;;;;;;15.27;4.90;;;;;;;;;;5078084;28;20212;-76
2022/02/15 01:58:43;;;;;;;21.27;5.77;;;;;;;;;;5077716;28;20329;-77
2022/02/15 02:01:10;;;;;;;13.13;5.17;;;;;;;;;;5072937;28;20226;-78
2022/02/15 02:03:37;;;;;;;14.10;5.37;;;;;;;;;;5073994;28;20236;-77
2022/02/15 02:06:04;;;;;;;15.93;6.00;;;;;;;;;;5078573;28;20202;-77
2022/02/15 02:08:33;;;;;;;26.13;8.17;;;;;;;;;;5080297;28;20204;-77
2022/02/15 02:11:02;;;;;;;27.03;9.87;;;;;;;;;;5079134;28;20879;-79
2022/02/15 02:13:29;;;;;;;26.20;9.43;;;;;;;;;;5077702;28;20202;-77
2022/02/15 02:15:57;;;;;;;25.87;7.67;;;;;;;;;;5075650;28;20206;-77
2022/02/15 02:18:24;;;;;;;34.73;8.67;;;;;;;;;;5077086;28;20218;-77
2022/02/15 02:20:51;;;;;;;20.60;7.37;;;;;;;;;;5075678;28;20290;-77
2022/02/15 02:23:21;;;;;;;19.20;7.43;;;;;;;;;;5076939;28;20591;-78
2022/02/15 02:25:48;;;;;;;21.03;7.10;;;;;;;;;;5072901;28;20201;-77
2022/02/15 02:28:15;;;;;;;19.17;7.20;;;;;;;;;;5078779;28;20198;-78
2022/02/15 02:30:42;;;;;;;23.97;8.10;;;;;;;;;;5078095;28;20217;-78
2022/02/15 02:33:10;;;;;;;16.67;7.13;;;;;;;;;;5079426;28;20194;-77
2022/02/15 02:35:37;;;;;;;18.30;6.43;;;;;;;;;;5079681;28;20207;-78
2022/02/15 02:38:04;;;;;;;19.70;7.33;;;;;;;;;;5076118;28;20285;-78
2022/02/15 02:40:33;;;;;;;20.57;7.00;;;;;;;;;;5074995;28;20208;-78
2022/02/15 02:43:00;;;;;;;20.37;6.87;;;;;;;;;;5082845;28;20239;-77
2022/02/15 02:45:28;;;;;;;15.17;6.53;;;;;;;;;;5079002;28;20236;-77
2022/02/15 02:47:56;;;;;;;21.07;6.70;;;;;;;;;;5077688;28;20207;-77
2022/02/15 02:50:25;;;;;;;16.50;6.37;;;;;;;;;;5077433;28;20211;-77
2022/02/15 02:52:53;;;;;;;18.30;6.50;;;;;;;;;;5082653;28;20292;-76
2022/02/15 02:55:20;;;;;;;25.20;6.77;;;;;;;;;;5081079;28;20270;-77
2022/02/15 02:57:48;;;;;;;14.30;6.40;;;;;;;;;;5079296;28;20333;-78
2022/02/15 03:00:17;;;;;;;17.57;6.33;;;;;;;;;;5075812;28;20648;-77
2022/02/15 03:02:44;;;;;;;18.83;6.03;;;;;;;;;;5078713;28;20226;-78
2022/02/15 03:05:11;;;;;;;14.97;6.00;;;;;;;;;;5080124;28;20198;-78
2022/02/15 03:07:38;;;;;;;13.83;5.47;;;;;;;;;;5082229;28;20209;-76
2022/02/15 03:10:06;;;;;;;16.07;6.77;;;;;;;;;;5081835;28;20203;-78
2022/02/15 03:12:33;;;;;;;20.40;5.83;;;;;;;;;;5077347;28;20340;-77
2022/02/15 03:15:01;;;;;;;13.53;5.03;;;;;;;;;;5078708;28;20284;-78
2022/02/15 03:17:29;;;;;;;14.93;6.07;;;;;;;;;;5079414;28;20237;-77
2022/02/15 03:19:56;;;;;;;19.00;5.70;;;;;;;;;;5076833;28;20216;-78
2022/02/15 03:22:25;;;;;;;12.20;5.97;;;;;;;;;;5079305;28;20667;-78
2022/02/15 03:24:53;;;;;;;15.40;6.23;;;;;;;;;;5077537;28;20845;-78
2022/02/15 03:27:20;;;;;;;13.67;5.97;;;;;;;;;;5080298;28;20206;-77
2022/02/15 03:29:47;;;;;;;16.67;5.33;;;;;;;;;;5077744;28;20209;-77
2022/02/15 03:32:16;;;;;;;15.20;5.63;;;;;;;;;;5079586;28;20289;-77
2022/02/15 03:34:43;;;;;;;12.57;5.80;;;;;;;;;;5078433;28;20198;-77
2022/02/15 03:37:10;;;;;;;12.90;5.47;;;;;;;;;;5078578;28;20198;-78
2022/02/15 03:39:37;;;;;;;17.23;6.47;;;;;;;;;;5082166;28;20232;-79
2022/02/15 03:44:50;;;;;;;15.30;6.03;;;;;;;;;;5078562;28;20225;-77
2022/02/15 03:47:18;;;;;;;17.10;6.07;;;;;;;;;;5078430;28;20333;-79
2022/02/15 03:49:45;;;;;;;15.10;5.70;;;;;;;;;;5080734;28;20208;-77
2022/02/15 03:52:13;;;;;;;19.37;6.10;;;;;;;;;;5078701;28;20233;-78
2022/02/15 03:54:40;;;;;;;15.47;5.70;;;;;;;;;;5082646;28;20230;-78
2022/02/15 03:57:07;;;;;;;17.30;5.63;;;;;;;;;;5081883;28;20670;-77
2022/02/15 03:59:35;;;;;;;16.37;7.33;;;;;;;;;;5081259;28;20212;-76
2022/02/15 04:02:02;;;;;;;16.57;6.60;;;;;;;;;;5081733;28;20226;-77
2022/02/15 04:04:31;;;;;;;18.27;7.43;;;;;;;;;;5080152;28;20236;-78
2022/02/15 04:06:58;;;;;;;22.73;9.43;;;;;;;;;;5081185;28;20206;-79
2022/02/15 04:09:25;;;;;;;23.63;10.33;;;;;;;;;;5080005;28;20220;-77
2022/02/15 04:11:53;;;;;;;27.63;10.43;;;;;;;;;;5082835;28;20253;-77
2022/02/15 04:14:20;;;;;;;21.60;8.87;;;;;;;;;;5076146;28;20209;-78
2022/02/15 04:16:47;;;;;;;18.43;7.43;;;;;;;;;;5077146;28;20584;-77
2022/02/15 04:19:14;;;;;;;13.57;6.00;;;;;;;;;;5077998;28;20237;-77
2022/02/15 04:21:43;;;;;;;17.20;6.50;;;;;;;;;;5073467;28;20222;-79
2022/02/15 04:24:10;;;;;;;21.63;7.33;;;;;;;;;;5076693;28;20228;-78
2022/02/15 04:26:37;;;;;;;15.73;7.07;;;;;;;;;;5084025;28;20212;-78
2022/02/15 04:29:04;;;;;;;20.23;6.60;;;;;;;;;;5088199;28;20564;-78
2022/02/15 04:31:32;;;;;;;16.17;6.90;;;;;;;;;;5081184;28;20232;-77
2022/02/15 04:33:59;;;;;;;26.17;6.87;;;;;;;;;;5081650;28;20204;-78
2022/02/15 04:36:26;;;;;;;17.53;7.07;;;;;;;;;;5082468;28;20203;-76
2022/02/15 04:38:55;;;;;;;23.20;7.77;;;;;;;;;;5082271;28;20237;-78
2022/02/15 04:41:22;;;;;;;20.77;7.30;;;;;;;;;;5077435;28;20565;-77
2022/02/15 04:43:49;;;;;;;23.63;7.90;;;;;;;;;;5085390;28;20315;-78
2022/02/15 04:46:16;;;;;;;15.30;7.37;;;;;;;;;;5080368;28;20288;-78
2022/02/15 04:48:44;;;;;;;15.30;7.33;;;;;;;;;;5085554;28;20206;-78
2022/02/15 04:51:12;;;;;;;18.70;7.87;;;;;;;;;;5083514;28;20238;-79
2022/02/15 04:53:39;;;;;;;24.70;7.83;;;;;;;;;;5080452;28;20202;-79
2022/02/15 04:56:07;;;;;;;21.23;7.83;;;;;;;;;;5085251;28;20229;-78
2022/02/15 04:58:35;;;;;;;17.30;7.23;;;;;;;;;;5082320;28;20209;-77
2022/02/15 05:01:02;;;;;;;20.87;7.90;;;;;;;;;;5089238;28;20217;-78
2022/02/15 05:03:29;;;;;;;25.43;7.93;;;;;;;;;;5077262;28;20245;-78
2022/02/15 05:05:56;;;;;;;18.73;7.80;;;;;;;;;;5082858;28;20311;-77
2022/02/15 05:08:23;;;;;;;23.83;8.00;;;;;;;;;;5080614;28;20738;-78
2022/02/15 05:10:51;;;;;;;22.53;7.57;;;;;;;;;;5081473;28;20226;-78
2022/02/15 05:13:19;;;;;;;20.37;7.77;;;;;;;;;;5077565;28;20662;-78
2022/02/15 05:15:46;;;;;;;16.30;7.90;;;;;;;;;;5081896;28;20260;-77
2022/02/15 05:18:13;;;;;;;27.27;8.73;;;;;;;;;;5079059;28;20215;-78
2022/02/15 05:20:41;;;;;;;30.07;11.13;;;;;;;;;;5075892;28;20728;-78
2022/02/15 05:23:08;;;;;;;34.37;12.10;;;;;;;;;;5079054;28;20554;-78
2022/02/15 05:25:35;;;;;;;27.60;11.73;;;;;;;;;;5075444;28;20305;-78
2022/02/15 05:28:02;;;;;;;27.63;10.87;;;;;;;;;;5082101;28;20214;-77
2022/02/15 05:30:31;;;;;;;36.63;10.83;;;;;;;;;;5077407;28;20663;-76
2022/02/15 05:32:58;;;;;;;26.53;10.50;;;;;;;;;;5071873;28;20724;-78
2022/02/15 05:35:25;;;;;;;28.53;10.37;;;;;;;;;;5078924;28;20202;-78
2022/02/15 05:37:53;;;;;;;26.93;9.63;;;;;;;;;;5073935;28;20324;-78
2022/02/15 05:40:20;;;;;;;23.30;9.90;;;;;;;;;;5077127;28;20505;-78
2022/02/15 05:42:47;;;;;;;26.13;9.93;;;;;;;;;;5076261;28;20245;-78
2022/02/15 05:45:15;;;;;;;22.73;10.57;;;;;;;;;;5080655;28;20245;-78
2022/02/15 05:47:43;;;;;;;29.33;9.63;;;;;;;;;;5077154;28;20655;-76
2022/02/15 05:52:55;;;;;;;25.87;9.30;;;;;;;;;;5077392;28;20221;-78
2022/02/15 05:55:23;;;;;;;18.53;9.23;;;;;;;;;;5079105;28;20230;-78
2022/02/15 05:57:50;;;;;;;29.73;9.60;;;;;;;;;;5075502;28;20233;-78
2022/02/15 06:00:17;;;;;;;21.40;8.57;;;;;;;;;;5078335;28;20225;-79
2022/02/15 06:02:47;;;;;;;32.13;10.50;;;;;;;;;;5076645;28;20226;-79
2022/02/15 06:05:14;;;;;;;24.63;9.67;;;;;;;;;;5076413;28;20272;-79
2022/02/15 06:07:41;;;;;;;28.03;9.67;;;;;;;;;;5077762;28;20204;-79
2022/02/15 06:10:09;;;;;;;33.50;11.20;;;;;;;;;;5078433;28;20202;-78
2022/02/15 06:12:36;;;;;;;25.50;9.87;;;;;;;;;;5077298;28;20314;-76
2022/02/15 06:15:04;;;;;;;30.10;9.30;;;;;;;;;;5081656;28;20657;-78
2022/02/15 06:17:32;;;;;;;26.77;9.60;;;;;;;;;;5080022;28;20223;-79
2022/02/15 06:20:01;;;;;;;24.63;10.13;;;;;;;;;;5079633;28;20235;-79
2022/02/15 06:22:28;;;;;;;21.17;9.63;;;;;;;;;;5078536;28;20218;-79
2022/02/15 06:24:55;;;;;;;24.87;9.63;;;;;;;;;;5079924;28;20236;-78
2022/02/15 06:27:22;;;;;;;27.20;9.27;;;;;;;;;;5078037;28;20551;-79
2022/02/15 06:29:49;;;;;;;22.90;9.27;;;;;;;;;;5072632;28;20206;-79
2022/02/15 06:32:16;;;;;;;28.63;9.67;;;;;;;;;;5070491;28;20747;-77
2022/02/15 06:34:44;;;;;;;57.13;13.90;;;;;;;;;;5073722;28;20205;-79
2022/02/15 06:37:15;;;;;;;22.67;9.87;;;;;;;;;;5078678;28;20198;-77
2022/02/15 06:39:42;;;;;;;20.93;9.33;;;;;;;;;;5074147;28;20228;-76
2022/02/15 06:42:10;;;;;;;20.60;9.67;;;;;;;;;;5078300;28;20226;-78
2022/02/15 06:44:37;;;;;;;35.73;11.50;;;;;;;;;;5074590;28;20236;-79
2022/02/15 06:47:05;;;;;;;77.20;26.20;;;;;;;;;;5075015;28;20582;-77
2022/02/15 06:49:32;;;;;;;68.67;23.93;;;;;;;;;;5072060;28;20578;-78
2022/02/15 06:51:59;;;;;;;52.37;16.10;;;;;;;;;;5074065;28;20270;-78
2022/02/15 06:54:29;;;;;;;42.67;16.50;;;;;;;;;;5066159;28;20224;-77
2022/02/15 06:56:56;;;;;;;45.07;15.73;;;;;;;;;;5070288;28;20661;-76
2022/02/15 06:59:24;;;;;;;32.23;11.43;;;;;;;;;;5072761;28;20219;-75
2022/02/15 07:01:52;;;;;;;31.50;10.33;;;;;;;;;;5065635;28;20237;-77
2022/02/15 07:04:19;;;;;;;33.13;10.20;;;;;;;;;;5073179;28;20230;-77
2022/02/15 07:06:47;;;;;;;27.07;9.53;;;;;;;;;;5066317;28;20198;-77
2022/02/15 07:09:14;;;;;;;27.43;9.87;;;;;;;;;;5066094;28;20226;-77
2022/02/15 07:11:42;;;;;;;22.30;9.67;;;;;;;;;;5068020;28;20341;-77
2022/02/15 07:14:10;;;;;;;23.40;10.10;;;;;;;;;;5073486;28;20635;-76
2022/02/15 07:16:38;;;;;;;24.60;9.80;;;;;;;;;;5073922;28;20212;-76
2022/02/15 07:19:05;;;;;;;33.93;11.60;;;;;;;;;;5075447;28;20228;-79
2022/02/15 07:21:32;;;;;;;29.73;10.47;;;;;;;;;;5071436;28;20226;-78
2022/02/15 07:24:00;;;;;;;24.83;11.60;;;;;;;;;;5073529;28;20755;-78
2022/02/15 07:26:27;;;;;;;31.63;12.93;;;;;;;;;;5072776;28;20194;-77
2022/02/15 07:28:55;;;;;;;29.83;12.27;;;;;;;;;;5071778;28;20202;-78
2022/02/15 07:31:23;;;;;;;22.40;11.37;;;;;;;;;;5073000;28;20281;-77
2022/02/15 07:33:50;;;;;;;37.30;14.07;;;;;;;;;;5076038;28;20727;-77
2022/02/15 07:36:17;;;;;;;33.80;10.93;;;;;;;;;;5071545;28;20198;-77
2022/02/15 07:38:45;;;;;;;29.40;10.43;;;;;;;;;;5073677;28;20241;-76
2022/02/15 07:41:12;;;;;;;27.97;11.57;;;;;;;;;;5072663;28;20721;-78
2022/02/15 07:43:40;;;;;;;28.70;11.43;;;;;;;;;;5072662;28;20209;-76
2022/02/15 07:46:09;;;;;;;30.37;12.73;;;;;;;;;;5077379;28;20232;-77
2022/02/15 07:48:36;;;;;;;45.10;16.00;;;;;;;;;;5077070;28;20246;-78
2022/02/15 07:51:03;;;;;;;52.53;14.63;;;;;;;;;;5074238;28;20245;-78
2022/02/15 07:53:31;;;;;;;33.43;13.70;;;;;;;;;;5079538;28;20218;-77
2022/02/15 07:55:58;;;;;;;36.63;12.30;;;;;;;;;;5072455;28;20208;-78
2022/02/15 07:58:25;;;;;;;25.67;12.57;;;;;;;;;;5073727;28;20285;-76
2022/02/15 08:00:53;;;;;;;31.17;13.73;;;;;;;;;;5072879;28;20317;-78
2022/02/15 08:03:22;;;;;;;28.53;12.00;;;;;;;;;;5075363;28;20240;-79
2022/02/15 08:05:49;;;;;;;34.37;13.13;;;;;;;;;;5073149;28;20227;-78
2022/02/15 08:08:17;;;;;;;40.93;17.70;;;;;;;;;;5075841;28;20234;-76
2022/02/15 08:10:45;;;;;;;41.60;19.73;;;;;;;;;;5076074;28;20205;-77
2022/02/15 08:13:18;;;;;;;40.87;17.10;;;;;;;;;;5077142;28;20209;-78
2022/02/15 08:15:46;;;;;;;31.20;13.23;;;;;;;;;;5076758;28;20303;-77
2022/02/15 08:18:13;;;;;;;34.07;13.77;;;;;;;;;;5076514;28;20205;-78
2022/02/15 08:20:41;;;;;;;31.60;12.90;;;;;;;;;;5073325;28;20309;-77
2022/02/15 08:23:09;;;;;;;25.87;10.17;;;;;;;;;;5074651;28;20206;-78
2022/02/15 08:25:36;;;;;;;20.27;9.50;;;;;;;;;;5073110;28;20340;-76
2022/02/15 08:28:04;;;;;;;38.03;13.40;;;;;;;;;;5073005;28;20222;-77
2022/02/15 08:30:31;;;;;;;24.10;10.37;;;;;;;;;;5080601;28;20237;-78
2022/02/15 08:32:58;;;;;;;18.13;9.30;;;;;;;;;;5075748;28;20205;-77
2022/02/15 08:35:25;;;;;;;16.17;8.90;;;;;;;;;;5073317;28;20285;-77
2022/02/15 08:37:54;;;;;;;20.50;8.57;;;;;;;;;;5072867;28;20198;-78
2022/02/15 08:40:22;;;;;;;14.97;8.07;;;;;;;;;;5074202;28;20211;-78
2022/02/15 08:42:49;;;;;;;18.10;8.03;;;;;;;;;;5074730;28;20217;-78
2022/02/15 08:45:16;;;;;;;16.30;7.77;;;;;;;;;;5074638;28;20316;-77
2022/02/15 08:47:44;;;;;;;13.60;6.83;;;;;;;;;;5072886;28;20669;-78
2022/02/15 08:50:12;;;;;;;14.50;6.87;;;;;;;;;;5073121;28;20734;-77
2022/02/15 08:52:39;;;;;;;13.20;6.27;;;;;;;;;;5072842;28;20226;-78
2022/02/15 08:55:09;;;;;;;5.77;3.47;;;;;;;;;;5078368;28;20206;-78
2022/02/15 08:57:36;;;;;;;9.87;4.77;;;;;;;;;;5071296;28;20210;-78
2022/02/15 09:00:05;;;;;;;6.73;4.37;;;;;;;;;;5075800;28;20224;-77
2022/02/15 09:02:47;;;;;;;7.40;4.27;;;;;;;;;;5075104;28;20351;-77
2022/02/15 09:05:14;;;;;;;6.27;4.10;;;;;;;;;;5074819;28;20220;-78
2022/02/15 09:07:41;;;;;;;6.90;4.33;;;;;;;;;;5070857;28;20207;-77
2022/02/15 09:10:10;;;;;;;6.70;4.03;;;;;;;;;;5069566;28;20218;-77
2022/02/15 09:12:38;;;;;;;5.60;3.63;;;;;;;;;;5083336;28;20258;-76
2022/02/15 09:15:09;;;;;;;8.53;3.90;;;;;;;;;;5082157;28;20680;-78
2022/02/15 09:17:39;;;;;;;5.63;2.97;;;;;;;;;;5084016;28;20507;-77
2022/02/15 09:20:07;;;;;;;4.50;2.47;;;;;;;;;;5078502;28;20202;-78
2022/02/15 09:22:34;;;;;;;3.77;2.37;;;;;;;;;;5075619;28;20246;-78
2022/02/15 09:25:01;;;;;;;8.53;2.37;;;;;;;;;;5076069;28;20297;-78
2022/02/15 09:27:30;;;;;;;4.70;2.57;;;;;;;;;;5070284;28;20221;-78
2022/02/15 09:29:57;;;;;;;4.07;2.43;;;;;;;;;;5067639;28;20267;-78
2022/02/15 09:32:25;;;;;;;4.80;2.70;;;;;;;;;;5078674;28;20229;-77
2022/02/15 09:34:52;;;;;;;7.57;2.30;;;;;;;;;;5080310;28;20210;-79
2022/02/15 09:37:19;;;;;;;4.03;2.47;;;;;;;;;;5075578;28;20241;-79
2022/02/15 09:42:27;;;;;;;4.93;2.53;;;;;;;;;;5066423;28;20222;-78
2022/02/15 09:44:56;;;;;;;5.43;2.53;;;;;;;;;;5078264;28;20205;-77
2022/02/15 09:47:24;;;;;;;4.37;2.20;;;;;;;;;;5079925;28;20209;-78
2022/02/15 09:49:52;;;;;;;7.40;2.60;;;;;;;;;;5079696;28;20202;-78
2022/02/15 09:52:20;;;;;;;3.53;2.30;;;;;;;;;;5074087;28;20356;-77
2022/02/15 09:54:50;;;;;;;6.23;2.80;;;;;;;;;;5081100;28;20203;-81
2022/02/15 09:57:17;;;;;;;5.87;2.60;;;;;;;;;;5077165;28;20289;-80
2022/02/15 09:59:46;;;;;;;7.00;2.93;;;;;;;;;;5078177;28;20206;-80
2022/02/15 10:02:16;;;;;;;7.50;3.20;;;;;;;;;;5074378;28;20241;-79
2022/02/15 10:04:43;;;;;;;6.37;3.00;;;;;;;;;;5069834;28;20203;-78
2022/02/15 10:07:12;;;;;;;4.93;2.57;;;;;;;;;;5063099;28;20779;-78
2022/02/15 10:09:41;;;;;;;12.53;6.40;;;;;;;;;;5065690;28;20208;-79
2022/02/15 10:12:09;;;;;;;6.97;3.00;;;;;;;;;;5064079;28;20227;-78
2022/02/15 10:14:37;;;;;;;7.30;2.87;;;;;;;;;;5062503;28;20213;-79
2022/02/15 10:17:04;;;;;;;5.93;2.47;;;;;;;;;;5066992;28;20198;-78
2022/02/15 10:19:33;;;;;;;5.20;2.73;;;;;;;;;;5066070;28;20210;-78
2022/02/15 10:22:00;;;;;;;4.43;2.67;;;;;;;;;;5068928;28;20305;-78
2022/02/15 10:24:29;;;;;;;8.00;3.30;;;;;;;;;;5072898;28;20296;-80
2022/02/15 10:26:57;;;;;;;8.43;2.80;;;;;;;;;;5073682;28;20711;-77
2022/02/15 10:29:24;;;;;;;14.57;8.63;;;;;;;;;;5066951;28;20311;-79
2022/02/15 10:31:56;;;;;;;9.37;5.07;;;;;;;;;;5072588;28;20221;-78
2022/02/15 10:34:23;;;;;;;8.40;5.13;;;;;;;;;;5071987;28;20566;-78
2022/02/15 10:37:13;;;;;;;6.23;3.40;;;;;;;;;;5071974;28;20278;-78
2022/02/15 10:39:42;;;;;;;5.77;2.97;;;;;;;;;;5062949;28;20195;-78
2022/02/15 10:42:11;;;;;;;9.50;4.50;;;;;;;;;;5079890;28;20687;-78
2022/02/15 10:45:05;;;;;;;10.83;7.00;;;;;;;;;;5070882;28;20213;-79
2022/02/15 10:47:34;;;;;;;5.33;3.47;;;;;;;;;;5046291;28;20196;-78
2022/02/15 10:50:03;;;;;;;7.37;4.47;;;;;;;;;;5073213;28;20276;-79
2022/02/15 10:52:30;;;;;;;4.70;2.63;;;;;;;;;;5074647;28;20600;-79
2022/02/15 10:54:59;;;;;;;3.33;1.93;;;;;;;;;;5069161;28;20253;-79
2022/02/15 10:57:28;;;;;;;3.73;2.50;;;;;;;;;;5068830;28;20199;-78
2022/02/15 10:59:55;;;;;;;4.37;2.10;;;;;;;;;;5071871;28;20288;-78
2022/02/15 11:02:25;;;;;;;4.77;2.10;;;;;;;;;;5068808;28;20226;-78
2022/02/15 11:04:52;;;;;;;4.83;2.20;;;;;;;;;;5073315;28;20206;-78
2022/02/15 11:07:21;;;;;;;5.03;2.13;;;;;;;;;;5071889;28;20218;-77
2022/02/15 11:10:06;;;;;;;4.63;2.03;;;;;;;;;;5071751;28;20589;-78
2022/02/15 11:12:39;;;;;;;3.70;1.57;;;;;;;;;;5068451;28;20545;-79
2022/02/15 11:15:07;;;;;;;7.07;2.10;;;;;;;;;;5070108;28;20198;-78
2022/02/15 11:17:35;;;;;;;3.67;2.17;;;;;;;;;;5070352;28;20202;-78
2022/02/15 11:20:03;;;;;;;5.57;1.83;;;;;;;;;;5070094;28;20210;-78
2022/02/15 11:22:30;;;;;;;8.17;1.87;;;;;;;;;;5074872;28;20257;-79
2022/02/15 11:24:58;;;;;;;6.37;2.33;;;;;;;;;;5075301;28;20270;-78
2022/02/15 11:27:25;;;;;;;4.37;2.17;;;;;;;;;;5068480;28;20214;-80
2022/02/15 11:29:55;;;;;;;5.70;1.87;;;;;;;;;;5068280;28;20688;-77
2022/02/15 11:32:23;;;;;;;2.40;1.53;;;;;;;;;;5070311;28;20218;-78
2022/02/15 11:34:50;;;;;;;3.30;1.67;;;;;;;;;;5073597;28;20201;-78
2022/02/15 11:37:19;;;;;;;3.10;1.80;;;;;;;;;;5071356;28;20210;-79
2022/02/15 11:39:57;;;;;;;3.23;1.70;;;;;;;;;;5071643;28;20221;-79
2022/02/15 11:42:24;;;;;;;4.53;1.80;;;;;;;;;;5072018;28;20312;-78
2022/02/15 11:44:53;;;;;;;3.33;1.70;;;;;;;;;;5064889;28;20217;-78
2022/02/15 11:47:35;;;;;;;9.57;2.20;;;;;;;;;;5071135;28;20369;-79
2022/02/15 11:50:04;;;;;;;3.87;1.60;;;;;;;;;;5073589;28;20218;-79
2022/02/15 11:52:31;;;;;;;6.37;2.17;;;;;;;;;;5070707;28;20258;-79
2022/02/15 11:55:03;;;;;;;4.03;2.03;;;;;;;;;;5071937;28;20201;-78
2022/02/15 11:57:31;;;;;;;4.87;2.20;;;;;;;;;;5072511;28;20199;-79
2022/02/15 11:59:59;;;;;;;5.83;2.23;;;;;;;;;;5077523;28;20202;-79
2022/02/15 12:02:27;;;;;;;4.27;2.23;;;;;;;;;;5069379;28;20233;-78
2022/02/15 12:04:55;;;;;;;5.33;2.00;;;;;;;;;;5078772;28;20213;-81
2022/02/15 12:07:25;;;;;;;4.97;2.30;;;;;;;;;;5080657;28;20289;-81
2022/02/15 12:09:54;;;;;;;7.80;2.07;;;;;;;;;;5082281;28;20194;-80
2022/02/15 12:12:22;;;;;;;3.73;2.13;;;;;;;;;;5087181;28;20291;-80
2022/02/15 12:14:55;;;;;;;6.27;2.00;;;;;;;;;;5075773;28;20213;-78
2022/02/15 12:17:26;;;;;;;5.63;2.30;;;;;;;;;;5074000;28;20259;-78
2022/02/15 12:19:59;;;;;;;7.73;2.40;;;;;;;;;;5069501;28;20264;-79
2022/02/15 12:22:27;;;;;;;6.23;2.43;;;;;;;;;;5070652;28;20221;-79
2022/02/15 12:24:55;;;;;;;4.77;2.60;;;;;;;;;;5075615;28;20573;-78
2022/02/15 12:27:22;;;;;;;5.40;2.10;;;;;;;;;;5070141;28;20225;-77
2022/02/15 12:29:50;;;;;;;7.70;3.13;;;;;;;;;;5073827;28;20202;-78
2022/02/15 12:32:22;;;;;;;6.70;2.37;;;;;;;;;;5071897;28;20230;-77
2022/02/15 12:34:49;;;;;;;4.50;1.77;;;;;;;;;;5070642;28;20198;-78
2022/02/15 12:37:19;;;;;;;5.30;2.20;;;;;;;;;;5074634;28;20214;-78
2022/02/15 12:39:47;;;;;;;5.77;2.50;;;;;;;;;;5082474;28;20209;-80
2022/02/15 12:42:15;;;;;;;3.80;2.20;;;;;;;;;;5076355;28;20276;-76
2022/02/15 12:44:42;;;;;;;6.10;2.50;;;;;;;;;;5068720;28;20202;-78
2022/02/15 12:47:10;;;;;;;4.67;2.33;;;;;;;;;;5080066;28;20225;-78
2022/02/15 12:49:38;;;;;;;8.43;2.50;;;;;;;;;;5080763;28;20258;-78
2022/02/15 12:52:07;;;;;;;7.23;2.27;;;;;;;;;;5076067;28;20247;-77
2022/02/15 12:54:37;;;;;;;4.07;1.47;;;;;;;;;;5076823;28;20198;-78
2022/02/15 12:57:05;;;;;;;3.30;1.60;;;;;;;;;;5075221;28;20199;-77
2022/02/15 12:59:32;;;;;;;6.30;2.03;;;;;;;;;;5080590;28;20203;-79
2022/02/15 13:02:00;;;;;;;3.83;1.70;;;;;;;;;;5081814;28;20338;-79
2022/02/15 13:04:28;;;;;;;3.00;1.23;;;;;;;;;;5078221;28;20641;-78
2022/02/15 13:06:56;;;;;;;2.00;1.30;;;;;;;;;;5069600;28;20516;-79
2022/02/15 13:09:29;;;;;;;2.10;1.50;;;;;;;;;;5074409;28;20657;-79
2022/02/15 13:12:01;;;;;;;3.10;1.70;;;;;;;;;;5076366;28;20226;-78
2022/02/15 13:14:29;;;;;;;5.40;2.20;;;;;;;;;;5074886;28;20291;-79
2022/02/15 13:16:58;;;;;;;7.33;1.90;;;;;;;;;;5074331;28;20194;-77
2022/02/15 13:19:34;;;;;;;4.83;2.13;;;;;;;;;;5074995;28;20226;-77
2022/02/15 13:22:08;;;;;;;3.50;2.07;;;;;;;;;;5071559;28;20213;-80
2022/02/15 13:24:36;;;;;;;6.70;2.67;;;;;;;;;;5071674;28;20206;-78
2022/02/15 13:27:04;;;;;;;7.70;3.97;;;;;;;;;;5078550;28;20218;-78
2022/02/15 13:29:34;;;;;;;4.33;2.20;;;;;;;;;;5075316;28;20207;-79
2022/02/15 13:32:03;;;;;;;6.13;2.00;;;;;;;;;;5077753;28;20234;-79
2022/02/15 13:34:31;;;;;;;4.60;2.30;;;;;;;;;;5075313;28;20203;-78
2022/02/15 13:36:58;;;;;;;4.43;2.53;;;;;;;;;;5074856;28;20655;-78
2022/02/15 13:39:25;;;;;;;3.73;2.07;;;;;;;;;;5078913;28;20206;-79
2022/02/15 13:41:53;;;;;;;4.17;1.93;;;;;;;;;;5077969;28;20227;-79
2022/02/15 13:44:21;;;;;;;3.77;2.40;;;;;;;;;;5072654;28;20203;-78
2022/02/15 13:46:48;;;;;;;5.90;3.30;;;;;;;;;;5075189;28;20692;-79
2022/02/15 13:49:15;;;;;;;4.53;2.53;;;;;;;;;;5071705;28;20293;-80
2022/02/15 13:51:43;;;;;;;6.33;2.47;;;;;;;;;;5070025;28;20240;-77
2022/02/15 13:54:11;;;;;;;4.90;2.43;;;;;;;;;;5074522;28;20202;-79
2022/02/15 13:56:39;;;;;;;5.40;2.80;;;;;;;;;;5074192;28;20679;-79
2022/02/15 13:59:07;;;;;;;7.90;3.20;;;;;;;;;;5066390;28;20216;-79
2022/02/15 14:01:36;;;;;;;5.10;2.60;;;;;;;;;;5069091;28;20312;-77
2022/02/15 14:04:03;;;;;;;4.03;2.40;;;;;;;;;;5073175;28;20203;-79
2022/02/15 14:06:30;;;;;;;3.07;1.70;;;;;;;;;;5076262;28;20218;-78
2022/02/15 14:08:58;;;;;;;4.53;2.03;;;;;;;;;;5078532;28;20234;-77
2022/02/15 14:11:25;;;;;;;4.13;1.80;;;;;;;;;;5079159;28;20309;-77
2022/02/15 14:13:52;;;;;;;3.10;1.90;;;;;;;;;;5070694;28;20206;-78
2022/02/15 14:16:21;;;;;;;4.20;2.17;;;;;;;;;;5060215;28;20210;-78
2022/02/15 14:18:49;;;;;;;3.73;1.90;;;;;;;;;;5068946;28;20198;-77
2022/02/15 14:21:17;;;;;;;13.00;3.97;;;;;;;;;;5071089;28;20229;-78
2022/02/15 14:23:44;;;;;;;4.37;1.70;;;;;;;;;;5070410;28;20238;-79
2022/02/15 14:26:13;;;;;;;2.93;1.60;;;;;;;;;;5073076;28;20289;-79
2022/02/15 14:28:41;;;;;;;3.57;1.10;;;;;;;;;;5071542;28;20239;-79
2022/02/15 14:31:09;;;;;;;8.03;2.93;;;;;;;;;;5070528;28;20513;-79
2022/02/15 14:33:36;;;;;;;8.63;1.93;;;;;;;;;;5076329;28;20210;-79
2022/02/15 14:36:05;;;;;;;4.10;2.00;;;;;;;;;;5073354;28;20216;-78
2022/02/15 14:38:32;;;;;;;3.63;1.63;;;;;;;;;;5075808;28;20298;-80
2022/02/15 14:41:00;;;;;;;5.27;1.53;;;;;;;;;;5074619;28;20760;-79
2022/02/15 14:43:27;;;;;;;7.03;1.10;;;;;;;;;;5070936;28;20292;-79
2022/02/15 14:45:54;;;;;;;3.27;1.03;;;;;;;;;;5078254;28;20216;-79